Time;durP1;ratioP1;P1;durP2;ratioP2;P2;SDS_P1;SDS_P2;PMS_P1;PMS_P2;Temp;Humidity;BMP_temperature;BMP_pressure;BME280_temperature;BME280_humidity;BME280_pressure;Samples;Min_cycle;Max_cycle;Signal;HPM_P1;HPM_P2
2021/11/05 00:01:25;;;;;;;;;;;;;;;4.00;97.32;95960.56;5076925;28;19967;-81
2021/11/05 00:03:53;;;;;;;;;;;;;;;4.03;97.12;95954.94;5079731;28;19932;-81
2021/11/05 00:06:18;;;;;;;;;;;;;;;3.96;97.50;95954.94;5060349;28;19974;-82
2021/11/05 00:08:43;;;;;;;;;;;;;;;3.86;98.23;95960.53;5078652;28;20008;-82
2021/11/05 00:11:09;;;;;;;;;;;;;;;3.97;98.13;95958.34;5078538;28;19931;-82
2021/11/05 00:13:34;;;;;;;;;;;;;;;3.97;98.30;95960.97;5078725;28;20331;-82
2021/11/05 00:16:01;;;;;;;;;;;;;;;3.91;98.22;95970.38;5077678;28;19925;-82
2021/11/05 00:18:30;;;;;;;;;;;;;;;3.90;97.58;95974.78;5078720;28;20311;-81
2021/11/05 00:20:55;;;;;;;;;;;;;;;3.92;97.79;95977.16;5079892;28;19948;-81
2021/11/05 00:23:20;;;;;;;;;;;;;;;3.90;98.07;95977.38;5081141;28;20388;-80
2021/11/05 00:25:46;;;;;;;;;;;;;;;3.97;97.59;95979.97;5080444;28;20023;-82
2021/11/05 00:28:11;;;;;;;;;;;;;;;4.01;97.36;95969.97;5082048;28;19928;-81
2021/11/05 00:30:37;;;;;;;;;;;;;;;4.01;97.53;95978.56;5063008;28;20086;-81
2021/11/05 00:33:03;;;;;;;;;;;;;;;3.99;98.16;95975.38;5079319;28;19935;-82
2021/11/05 00:35:29;;;;;;;;;;;;;;;4.04;97.49;95977.41;5060346;28;19931;-81
2021/11/05 00:37:54;;;;;;;;;;;;;;;4.12;98.09;95980.59;5078351;28;19924;-82
2021/11/05 00:40:21;;;;;;;;;;;;;;;4.06;98.55;95981.38;5078702;28;19924;-82
2021/11/05 00:42:46;;;;;;;;;;;;;;;4.15;98.81;95979.41;5078885;28;19924;-82
2021/11/05 00:45:12;;;;;;;;;;;;;;;3.98;98.70;95983.38;5079133;28;19925;-82
2021/11/05 00:47:37;;;;;;;;;;;;;;;4.02;99.21;95987.19;5069273;28;19924;-81
2021/11/05 00:50:07;;;;;;;;;;;;;;;4.02;99.01;95995.00;5067989;28;20388;-82
2021/11/05 00:52:32;;;;;;;;;;;;;;;3.96;98.65;95986.19;5079480;28;20015;-81
2021/11/05 00:54:58;;;;;;;;;;;;;;;3.95;99.38;95985.38;5078105;28;19962;-82
2021/11/05 00:57:23;;;;;;;;;;;;;;;3.88;99.94;95989.78;5078459;28;19924;-82
2021/11/05 00:59:51;;;;;;;;;;;;;;;3.82;100.00;95990.59;5063130;28;19974;-81
2021/11/05 01:02:16;;;;;;;;;;;;;;;3.80;100.00;95989.97;5078618;28;19959;-81
2021/11/05 01:04:42;;;;;;;;;;;;;;;3.83;100.00;95976.56;5076933;28;19924;-81
2021/11/05 01:07:11;;;;;;;;;;;;;;;3.83;100.00;95986.97;5077500;28;20440;-81
2021/11/05 01:09:37;;;;;;;;;;;;;;;3.75;100.00;95987.16;5078422;28;19925;-81
2021/11/05 01:12:03;;;;;;;;;;;;;;;3.77;100.00;95985.19;5076406;28;19924;-81
2021/11/05 01:14:31;;;;;;;;;;;;;;;3.86;100.00;95994.38;5059003;28;20284;-81
2021/11/05 01:16:58;;;;;;;;;;;;;;;3.82;100.00;95989.75;5077689;28;19974;-82
2021/11/05 01:19:24;;;;;;;;;;;;;;;3.89;100.00;96001.00;5078207;28;19925;-82
2021/11/05 01:21:51;;;;;;;;;;;;;;;3.90;100.00;95998.19;5059109;28;20031;-82
2021/11/05 01:24:20;;;;;;;;;;;;;;;3.84;100.00;96000.78;5077864;28;19924;-81
2021/11/05 01:26:48;;;;;;;;;;;;;;;3.85;100.00;96000.59;5076966;28;19925;-82
2021/11/05 01:29:16;;;;;;;;;;;;;;;3.83;100.00;95994.78;5076673;28;20035;-82
2021/11/05 01:31:43;;;;;;;;;;;;;;;3.81;100.00;96004.56;5059033;28;19925;-82
2021/11/05 01:34:08;;;;;;;;;;;;;;;3.69;100.00;96000.97;5077457;28;19925;-80
2021/11/05 01:36:36;;;;;;;;;;;;;;;3.75;100.00;96010.56;5077270;28;20460;-82
2021/11/05 01:39:01;;;;;;;;;;;;;;;3.70;100.00;96002.56;5058522;28;20040;-81
2021/11/05 01:41:28;;;;;;;;;;;;;;;3.65;100.00;96010.16;5078557;28;19959;-82
2021/11/05 01:43:54;;;;;;;;;;;;;;;3.62;100.00;96010.56;5079033;28;19924;-81
2021/11/05 01:46:19;;;;;;;;;;;;;;;3.61;100.00;96014.16;5092162;28;19967;-81
2021/11/05 01:48:45;;;;;;;;;;;;;;;3.60;100.00;96013.34;5081028;28;19932;-82
2021/11/05 01:51:10;;;;;;;;;;;;;;;3.50;100.00;96012.09;5078034;28;19955;-81
2021/11/05 01:53:36;;;;;;;;;;;;;;;3.48;100.00;96011.50;5082203;28;19925;-82
2021/11/05 01:56:01;;;;;;;;;;;;;;;3.52;100.00;96004.94;5075618;28;20020;-82
2021/11/05 01:58:28;;;;;;;;;;;;;;;3.66;100.00;96006.56;5059900;28;20380;-81
2021/11/05 02:00:56;;;;;;;;;;;;;;;3.52;100.00;96005.72;5058038;28;20028;-82
2021/11/05 02:03:21;;;;;;;;;;;;;;;3.71;100.00;96011.97;5076070;28;20330;-81
2021/11/05 02:05:50;;;;;;;;;;;;;;;3.62;100.00;96002.75;5076518;28;20305;-82
2021/11/05 02:08:17;;;;;;;;;;;;;;;3.54;100.00;96015.91;5064767;28;19924;-81
2021/11/05 02:10:44;;;;;;;;;;;;;;;3.58;100.00;96010.13;5085684;28;19931;-81
2021/11/05 02:13:14;;;;;;;;;;;;;;;3.57;100.00;96015.53;5082954;28;19935;-81
2021/11/05 02:15:41;;;;;;;;;;;;;;;3.66;100.00;96017.78;5059689;28;20019;-82
2021/11/05 02:18:07;;;;;;;;;;;;;;;3.54;100.00;96026.31;5076016;28;19924;-81
2021/11/05 02:20:36;;;;;;;;;;;;;;;3.48;100.00;96024.50;5075526;28;19924;-81
2021/11/05 02:23:04;;;;;;;;;;;;;;;3.60;100.00;96018.53;5078239;28;20180;-82
2021/11/05 02:25:30;;;;;;;;;;;;;;;3.60;100.00;96028.13;5064937;28;19963;-81
2021/11/05 02:27:57;;;;;;;;;;;;;;;3.61;100.00;96027.16;5084818;28;19947;-82
2021/11/05 02:30:26;;;;;;;;;;;;;;;3.71;100.00;96024.97;5088269;28;19963;-81
2021/11/05 02:32:51;;;;;;;;;;;;;;;3.79;100.00;96031.81;5087598;28;19940;-81
2021/11/05 02:35:19;;;;;;;;;;;;;;;3.74;100.00;96035.00;5064631;28;19924;-81
2021/11/05 02:37:46;;;;;;;;;;;;;;;3.72;100.00;96037.00;5059868;28;20388;-82
2021/11/05 02:40:13;;;;;;;;;;;;;;;3.84;99.92;96025.00;5078732;28;19924;-81
2021/11/05 02:42:39;;;;;;;;;;;;;;;3.79;99.91;96043.00;5058903;28;19931;-81
2021/11/05 02:45:05;;;;;;;;;;;;;;;3.86;99.48;96043.81;5076156;28;19924;-82
2021/11/05 02:47:30;;;;;;;;;;;;;;;3.84;99.68;96047.63;5076213;28;19936;-81
2021/11/05 02:49:58;;;;;;;;;;;;;;;3.79;99.57;96043.00;5063108;28;19913;-81
2021/11/05 02:52:24;;;;;;;;;;;;;;;3.84;99.90;96043.22;5089998;28;20372;-81
2021/11/05 02:54:52;;;;;;;;;;;;;;;4.01;99.26;96055.84;5074121;28;19935;-81
2021/11/05 02:57:21;;;;;;;;;;;;;;;4.05;98.56;96059.69;5073898;28;20013;-82
2021/11/05 02:59:49;;;;;;;;;;;;;;;3.97;99.12;96059.84;5067163;28;19912;-82
2021/11/05 03:02:14;;;;;;;;;;;;;;;4.01;98.56;96055.84;5081248;28;20015;-80
2021/11/05 03:04:39;;;;;;;;;;;;;;;4.01;98.95;96055.84;5059642;28;20367;-81
2021/11/05 03:07:06;;;;;;;;;;;;;;;3.89;99.00;96059.03;5074682;28;19932;-81
2021/11/05 03:09:32;;;;;;;;;;;;;;;3.81;98.84;96066.22;5074475;28;19947;-80
2021/11/05 03:12:00;;;;;;;;;;;;;;;3.86;99.18;96062.03;5074483;28;19939;-80
2021/11/05 03:14:27;;;;;;;;;;;;;;;3.90;98.98;96060.63;5057649;28;20380;-81
2021/11/05 03:16:52;;;;;;;;;;;;;;;4.16;98.08;96066.91;5080376;28;19990;-81
2021/11/05 03:19:18;;;;;;;;;;;;;;;4.06;97.90;96069.09;5058562;28;19925;-80
2021/11/05 03:21:43;;;;;;;;;;;;;;;3.93;98.83;96075.06;5080693;28;19931;-80
2021/11/05 03:24:09;;;;;;;;;;;;;;;4.02;98.61;96068.66;5081521;28;19928;-80
2021/11/05 03:26:34;;;;;;;;;;;;;;;4.10;97.52;96071.09;5061501;28;19931;-80
2021/11/05 03:28:59;;;;;;;;;;;;;;;4.00;97.73;96075.09;5074445;28;19928;-80
2021/11/05 03:31:28;;;;;;;;;;;;;;;4.03;97.57;96074.66;5058165;28;20026;-80
2021/11/05 03:33:54;;;;;;;;;;;;;;;4.03;97.88;96080.66;5084289;28;20008;-79
2021/11/05 03:36:19;;;;;;;;;;;;;;;4.01;98.10;96089.69;5096828;28;19931;-80
2021/11/05 03:38:48;;;;;;;;;;;;;;;4.09;97.51;96089.50;5099002;28;19912;-80
2021/11/05 03:41:16;;;;;;;;;;;;;;;4.30;96.65;96097.13;5081079;28;19991;-80
2021/11/05 03:43:44;;;;;;;;;;;;;;;4.25;96.62;96099.56;5099527;28;19912;-79
2021/11/05 03:46:09;;;;;;;;;;;;;;;4.12;97.69;96109.94;5092783;28;19932;-80
2021/11/05 03:48:38;;;;;;;;;;;;;;;4.22;97.38;96107.75;5060682;28;19925;-80
2021/11/05 03:51:04;;;;;;;;;;;;;;;4.28;96.66;96113.97;5078204;28;20357;-80
2021/11/05 03:53:29;;;;;;;;;;;;;;;4.27;97.18;96107.16;5060370;28;19934;-81
2021/11/05 03:55:55;;;;;;;;;;;;;;;4.32;96.34;96107.38;5060161;28;19941;-80
2021/11/05 03:58:22;;;;;;;;;;;;;;;4.31;96.50;96119.59;5077230;28;20392;-80
2021/11/05 04:00:48;;;;;;;;;;;;;;;4.26;96.63;96121.19;5077188;28;20265;-79
2021/11/05 04:03:16;;;;;;;;;;;;;;;4.33;96.12;96119.38;5076734;28;19935;-80
2021/11/05 04:05:45;;;;;;;;;;;;;;;4.24;96.72;96121.38;5076932;28;20427;-80
2021/11/05 04:08:10;;;;;;;;;;;;;;;4.27;96.37;96128.00;5076790;28;20378;-81
2021/11/05 04:10:38;;;;;;;;;;;;;;;4.33;95.88;96133.22;5077204;28;20442;-81
2021/11/05 04:13:06;;;;;;;;;;;;;;;4.29;96.16;96137.19;5077151;28;19925;-80
2021/11/05 04:15:31;;;;;;;;;;;;;;;4.39;95.71;96142.03;5077448;28;19925;-80
2021/11/05 04:17:57;;;;;;;;;;;;;;;4.38;95.76;96151.66;5058637;28;19931;-80
2021/11/05 04:20:22;;;;;;;;;;;;;;;4.34;95.06;96145.22;5085793;28;20430;-80
2021/11/05 04:22:49;;;;;;;;;;;;;;;4.42;95.32;96147.66;5090867;28;19924;-80
2021/11/05 04:25:14;;;;;;;;;;;;;;;4.53;94.50;96148.06;5061312;28;20010;-80
2021/11/05 04:27:40;;;;;;;;;;;;;;;4.43;94.60;96157.06;5078359;28;20335;-80
2021/11/05 04:30:09;;;;;;;;;;;;;;;4.46;94.93;96151.44;5077019;28;19931;-80
2021/11/05 04:32:34;;;;;;;;;;;;;;;4.39;95.26;96158.44;5076327;28;19924;-81
2021/11/05 04:34:59;;;;;;;;;;;;;;;4.41;95.03;96164.28;5075818;28;19936;-80
2021/11/05 04:37:28;;;;;;;;;;;;;;;4.37;95.12;96162.28;5076376;28;19924;-81
2021/11/05 04:39:55;;;;;;;;;;;;;;;4.39;95.77;96163.66;5077212;28;19928;-80
2021/11/05 04:42:22;;;;;;;;;;;;;;;4.52;95.59;96162.06;5078534;28;19982;-80
2021/11/05 04:44:48;;;;;;;;;;;;;;;4.50;95.25;96166.69;5076439;28;19925;-80
2021/11/05 04:47:16;;;;;;;;;;;;;;;4.36;95.89;96164.06;5076214;28;19932;-80
2021/11/05 04:49:41;;;;;;;;;;;;;;;4.37;96.30;96165.66;5076169;28;19931;-79
2021/11/05 04:52:07;;;;;;;;;;;;;;;4.42;95.87;96168.50;5057666;28;19924;-80
2021/11/05 04:54:32;;;;;;;;;;;;;;;4.46;95.23;96164.47;5057466;28;19936;-81
2021/11/05 04:56:59;;;;;;;;;;;;;;;4.47;95.72;96165.28;5059570;28;20381;-80
2021/11/05 04:59:24;;;;;;;;;;;;;;;4.47;95.41;96162.69;5080079;28;19924;-80
2021/11/05 05:01:50;;;;;;;;;;;;;;;4.47;95.98;96173.91;5080501;28;19924;-80
2021/11/05 05:04:16;;;;;;;;;;;;;;;4.43;96.15;96169.28;5079978;28;19971;-80
2021/11/05 05:06:43;;;;;;;;;;;;;;;4.53;95.66;96174.91;5061199;28;20403;-80
2021/11/05 05:09:12;;;;;;;;;;;;;;;4.45;95.60;96173.28;5078551;28;19925;-80
2021/11/05 05:11:37;;;;;;;;;;;;;;;4.52;95.74;96172.50;5079165;28;19964;-78
2021/11/05 05:14:04;;;;;;;;;;;;;;;4.42;95.55;96178.91;5060822;28;20023;-80
2021/11/05 05:16:29;;;;;;;;;;;;;;;4.40;95.66;96175.69;5078992;28;20359;-80
2021/11/05 05:18:55;;;;;;;;;;;;;;;4.50;96.01;96183.13;5079985;28;20426;-79
2021/11/05 05:21:20;;;;;;;;;;;;;;;4.43;96.00;96185.72;5080076;28;19925;-79
2021/11/05 05:23:45;;;;;;;;;;;;;;;4.53;95.71;96190.53;5061259;28;20363;-79
2021/11/05 05:26:13;;;;;;;;;;;;;;;4.46;95.42;96190.50;5061783;28;19931;-78
2021/11/05 05:28:38;;;;;;;;;;;;;;;4.47;95.93;96193.94;5079515;28;19975;-79
2021/11/05 05:31:07;;;;;;;;;;;;;;;4.51;95.49;96197.72;5084337;28;19978;-80
2021/11/05 05:33:33;;;;;;;;;;;;;;;4.54;96.00;96206.97;5062914;28;19929;-79
2021/11/05 05:35:58;;;;;;;;;;;;;;;4.54;95.46;96201.75;5079759;28;19924;-80
2021/11/05 05:38:23;;;;;;;;;;;;;;;4.57;94.70;96203.97;5062459;28;19924;-79
2021/11/05 05:40:49;;;;;;;;;;;;;;;4.62;95.11;96207.56;5082895;28;20594;-79
2021/11/05 05:43:14;;;;;;;;;;;;;;;4.59;95.64;96210.59;5067081;28;20007;-79
2021/11/05 05:45:39;;;;;;;;;;;;;;;4.72;94.81;96217.63;5083013;28;19928;-80
2021/11/05 05:48:06;;;;;;;;;;;;;;;4.61;95.50;96208.56;5063349;28;19925;-79
2021/11/05 05:50:34;;;;;;;;;;;;;;;4.56;95.66;96218.00;5062298;28;19924;-80
2021/11/05 05:53:02;;;;;;;;;;;;;;;4.76;94.82;96223.25;5080148;28;19991;-79
2021/11/05 05:55:27;;;;;;;;;;;;;;;4.66;94.76;96228.84;5081671;28;19924;-80
2021/11/05 05:57:53;;;;;;;;;;;;;;;4.58;95.27;96232.44;5081773;28;19932;-80
2021/11/05 06:00:18;;;;;;;;;;;;;;;4.62;95.14;96240.63;5081210;28;19925;-80
2021/11/05 06:02:46;;;;;;;;;;;;;;;4.56;95.54;96242.22;5080438;28;20015;-80
2021/11/05 06:05:14;;;;;;;;;;;;;;;4.58;95.08;96239.44;5062625;28;19925;-79
2021/11/05 06:07:39;;;;;;;;;;;;;;;4.56;95.09;96246.66;5080670;28;20380;-79
2021/11/05 06:10:05;;;;;;;;;;;;;;;4.58;95.53;96245.47;5080314;28;20024;-80
2021/11/05 06:12:32;;;;;;;;;;;;;;;4.55;95.29;96251.06;5079999;28;19929;-80
2021/11/05 06:14:59;;;;;;;;;;;;;;;4.56;95.73;96251.84;5062454;28;19990;-80
2021/11/05 06:17:25;;;;;;;;;;;;;;;4.52;95.17;96261.88;5060787;28;19924;-82
2021/11/05 06:19:52;;;;;;;;;;;;;;;4.56;95.00;96251.84;5073972;28;19935;-80
2021/11/05 06:22:19;;;;;;;;;;;;;;;4.58;94.96;96261.09;5088501;28;19990;-78
2021/11/05 06:24:45;;;;;;;;;;;;;;;4.50;95.20;96263.84;5085959;28;19974;-79
2021/11/05 06:27:12;;;;;;;;;;;;;;;4.67;95.13;96279.94;5069980;28;20370;-78
2021/11/05 06:29:38;;;;;;;;;;;;;;;4.68;94.39;96279.75;5068938;28;20028;-79
2021/11/05 06:32:03;;;;;;;;;;;;;;;4.65;94.97;96282.75;5061929;28;20005;-80
2021/11/05 06:34:29;;;;;;;;;;;;;;;4.76;94.18;96283.97;5079959;28;19924;-80
2021/11/05 06:36:54;;;;;;;;;;;;;;;4.57;94.73;96284.72;5080422;28;19924;-79
2021/11/05 06:39:21;;;;;;;;;;;;;;;4.56;94.76;96296.13;5079021;28;19929;-80
2021/11/05 06:41:47;;;;;;;;;;;;;;;4.53;94.37;96286.13;5060686;28;20299;-80
2021/11/05 06:44:12;;;;;;;;;;;;;;;4.51;94.31;96295.91;5078649;28;19925;-79
2021/11/05 06:46:38;;;;;;;;;;;;;;;4.43;95.67;96302.13;5060525;28;19954;-79
2021/11/05 06:49:04;;;;;;;;;;;;;;;4.45;95.72;96307.91;5078303;28;19925;-79
2021/11/05 06:51:31;;;;;;;;;;;;;;;4.31;96.14;96312.28;5060329;28;20313;-80
2021/11/05 06:53:56;;;;;;;;;;;;;;;4.27;96.45;96311.06;5060394;28;20019;-79
2021/11/05 06:56:25;;;;;;;;;;;;;;;4.19;96.21;96311.22;5087290;28;19990;-79
2021/11/05 06:58:51;;;;;;;;;;;;;;;4.22;96.58;96316.84;5074759;28;19959;-78
2021/11/05 07:01:17;;;;;;;;;;;;;;;4.34;96.32;96326.72;5088202;28;19925;-79
2021/11/05 07:03:42;;;;;;;;;;;;;;;4.28;96.37;96328.28;5081951;28;19963;-80
2021/11/05 07:06:08;;;;;;;;;;;;;;;4.33;96.00;96330.31;5081105;28;19932;-81
2021/11/05 07:08:34;;;;;;;;;;;;;;;4.35;95.75;96336.13;5080318;28;19928;-81
2021/11/05 07:11:00;;;;;;;;;;;;;;;4.31;95.65;96343.53;5078270;28;19935;-80
2021/11/05 07:13:26;;;;;;;;;;;;;;;4.39;95.82;96353.78;5079483;28;19936;-81
2021/11/05 07:15:52;;;;;;;;;;;;;;;4.42;95.12;96345.59;5079215;28;19996;-81
2021/11/05 07:18:21;;;;;;;;;;;;;;;4.45;95.22;96360.81;5086481;28;20353;-81
2021/11/05 07:20:49;;;;;;;;;;;;;;;4.57;94.59;96365.47;5072726;28;19931;-81
2021/11/05 07:23:14;;;;;;;;;;;;;;;4.68;93.89;96377.94;5072734;28;19924;-79
2021/11/05 07:25:40;;;;;;;;;;;;;;;4.86;93.71;96383.44;5087148;28;19929;-80
2021/11/05 07:28:06;;;;;;;;;;;;;;;5.08;92.53;96391.13;5079485;28;19925;-79
2021/11/05 07:30:33;;;;;;;;;;;;;;;5.28;91.71;96386.78;5081057;28;19967;-80
2021/11/05 07:32:58;;;;;;;;;;;;;;;5.48;91.32;96395.41;5079666;28;19986;-80
2021/11/05 07:35:26;;;;;;;;;;;;;;;5.51;90.58;96400.25;5081896;28;19925;-80
2021/11/05 07:37:52;;;;;;;;;;;;;;;5.63;89.95;96404.88;5069713;28;19940;-80
2021/11/05 07:40:18;;;;;;;;;;;;;;;5.82;89.75;96405.91;5089337;28;19925;-80
2021/11/05 07:42:44;;;;;;;;;;;;;;;5.65;89.91;96414.13;5068200;28;20004;-81
2021/11/05 07:45:13;;;;;;;;;;;;;;;5.55;90.26;96412.91;5060645;28;19947;-81
2021/11/05 07:47:41;;;;;;;;;;;;;;;5.63;89.30;96417.94;5079636;28;19924;-80
2021/11/05 07:50:07;;;;;;;;;;;;;;;5.53;89.99;96421.72;5061816;28;20000;-81
2021/11/05 07:52:33;;;;;;;;;;;;;;;5.49;90.92;96425.75;5078595;28;19947;-81
2021/11/05 07:54:58;;;;;;;;;;;;;;;5.61;90.99;96433.00;5080596;28;19924;-81
2021/11/05 07:57:23;;;;;;;;;;;;;;;5.70;90.19;96437.00;5060226;28;19924;-80
2021/11/05 07:59:49;;;;;;;;;;;;;;;5.71;89.38;96439.44;5060568;28;19924;-80
2021/11/05 08:02:15;;;;;;;;;;;;;;;5.86;89.82;96441.03;5059826;28;20365;-80
2021/11/05 08:04:41;;;;;;;;;;;;;;;5.84;89.37;96443.84;5078306;28;20138;-80
2021/11/05 08:07:09;;;;;;;;;;;;;;;5.81;89.91;96444.22;5078667;28;19931;-80
2021/11/05 08:09:35;;;;;;;;;;;;;;;5.70;90.18;96450.03;5078729;28;20379;-81
2021/11/05 08:12:00;;;;;;;;;;;;;;;5.79;89.80;96452.28;5060788;28;20031;-80
2021/11/05 08:14:26;;;;;;;;;;;;;;;5.95;89.72;96461.56;5078888;28;19946;-82
2021/11/05 08:16:51;;;;;;;;;;;;;;;5.85;90.13;96463.72;5079341;28;19924;-80
2021/11/05 08:19:17;;;;;;;;;;;;;;;5.93;89.88;96470.59;5060410;28;19932;-81
2021/11/05 08:21:44;;;;;;;;;;;;;;;5.99;89.34;96477.63;5061860;28;19964;-80
2021/11/05 08:24:09;;;;;;;;;;;;;;;6.29;88.28;96483.25;5064574;28;19925;-80
2021/11/05 08:26:35;;;;;;;;;;;;;;;6.13;88.12;96478.44;5082254;28;19924;-80
2021/11/05 08:29:03;;;;;;;;;;;;;;;6.24;88.06;96496.09;5082479;28;20016;-80
2021/11/05 08:31:29;;;;;;;;;;;;;;;6.39;87.80;96493.28;5081754;28;20358;-80
2021/11/05 08:33:54;;;;;;;;;;;;;;;6.27;87.97;96496.53;5082898;28;20066;-80
2021/11/05 08:36:21;;;;;;;;;;;;;;;6.28;88.04;96498.13;5081711;28;19931;-80
2021/11/05 08:38:48;;;;;;;;;;;;;;;6.50;87.22;96498.72;5082037;28;19930;-80
2021/11/05 08:41:17;;;;;;;;;;;;;;;6.35;87.37;96507.75;5064126;28;19974;-79
2021/11/05 08:43:44;;;;;;;;;;;;;;;6.33;88.19;96507.97;5081831;28;19924;-80
2021/11/05 08:46:10;;;;;;;;;;;;;;;6.35;88.21;96508.59;5082367;28;19929;-80
2021/11/05 08:48:35;;;;;;;;;;;;;;;6.30;89.44;96516.22;5081551;28;19925;-80
2021/11/05 08:51:04;;;;;;;;;;;;;;;6.38;89.09;96513.41;5083207;28;20384;-78
2021/11/05 08:53:29;;;;;;;;;;;;;;;6.58;87.57;96519.44;5082305;28;19925;-80
2021/11/05 08:55:56;;;;;;;;;;;;;;;6.49;89.52;96509.38;5064796;28;20035;-79
2021/11/05 08:58:22;;;;;;;;;;;;;;;6.59;89.07;96515.00;5062753;28;20361;-79
2021/11/05 09:00:47;;;;;;;;;;;;;;;6.53;89.02;96521.84;5081693;28;19970;-80
2021/11/05 09:03:13;;;;;;;;;;;;;;;6.58;88.66;96524.66;5081574;28;19970;-80
2021/11/05 09:05:39;;;;;;;;;;;;;;;6.64;89.54;96536.09;5081926;28;19935;-79
2021/11/05 09:08:05;;;;;;;;;;;;;;;6.64;88.84;96537.91;5082049;28;19925;-80
2021/11/05 09:10:31;;;;;;;;;;;;;;;6.78;89.05;96539.50;5083415;28;19928;-82
2021/11/05 09:13:00;;;;;;;;;;;;;;;6.95;87.49;96532.84;5083366;28;19925;-80
2021/11/05 09:15:27;;;;;;;;;;;;;;;7.17;86.22;96543.06;5084693;28;19973;-80
2021/11/05 09:17:53;;;;;;;;;;;;;;;7.20;86.34;96550.47;5071039;28;19924;-80
2021/11/05 09:20:19;;;;;;;;;;;;;;;7.08;86.97;96551.13;5073129;28;19924;-80
2021/11/05 09:22:45;;;;;;;;;;;;;;;7.33;86.43;96558.31;5066833;28;20014;-80
2021/11/05 09:25:11;;;;;;;;;;;;;;;7.34;84.81;96563.31;5084928;28;19929;-80
2021/11/05 09:27:39;;;;;;;;;;;;;;;7.39;84.70;96567.94;5064555;28;19924;-80
2021/11/05 09:30:10;;;;;;;;;;;;;;;7.23;86.29;96573.63;5083279;28;20464;-79
2021/11/05 09:32:38;;;;;;;;;;;;;;;7.22;87.67;96578.06;5082061;28;19959;-79
2021/11/05 09:35:06;;;;;;;;;;;;;;;7.03;89.80;96584.13;5090243;28;19956;-79
2021/11/05 09:37:32;;;;;;;;;;;;;;;6.81;90.90;96575.72;5084156;28;19928;-80
2021/11/05 09:39:58;;;;;;;;;;;;;;;6.70;90.86;96586.78;5082013;28;19970;-80
2021/11/05 09:42:23;;;;;;;;;;;;;;;6.57;93.12;96591.00;5084348;28;19924;-80
2021/11/05 09:44:48;;;;;;;;;;;;;;;6.60;93.23;96588.97;5082159;28;20127;-80
2021/11/05 09:47:17;;;;;;;;;;;;;;;6.66;93.64;96594.22;5081314;28;19924;-80
2021/11/05 09:49:42;;;;;;;;;;;;;;;6.55;94.55;96598.22;5081643;28;20011;-80
2021/11/05 09:52:07;;;;;;;;;;;;;;;6.53;94.35;96592.41;5062826;28;20415;-80
2021/11/05 09:54:35;;;;;;;;;;;;;;;6.68;94.42;96600.06;5081251;28;19962;-80
2021/11/05 09:57:02;;;;;;;;;;;;;;;6.70;95.39;96605.88;5080552;28;20302;-80
2021/11/05 09:59:28;;;;;;;;;;;;;;;6.74;95.35;96603.69;5080645;28;20067;-80
2021/11/05 10:01:55;;;;;;;;;;;;;;;6.89;95.89;96609.50;5080316;28;19979;-82
2021/11/05 10:04:22;;;;;;;;;;;;;;;6.77;94.07;96603.25;5081042;28;19932;-81
2021/11/05 10:07:01;;;;;;;;;;;;;;;6.69;95.02;96614.72;5082606;28;20344;-81
2021/11/05 10:09:34;;;;;;;;;;;;;;;6.61;94.44;96611.50;5061879;28;19925;-79
2021/11/05 10:12:04;;;;;;;;;;;;;;;6.76;94.48;96619.94;5062492;28;19924;-80
2021/11/05 10:14:33;;;;;;;;;;;;;;;6.75;93.13;96618.34;5079375;28;19960;-80
2021/11/05 10:17:00;;;;;;;;;;;;;;;6.69;92.54;96619.97;5079286;28;19924;-81
2021/11/05 10:19:44;;;;;;;;;;;;;;;6.68;93.24;96622.78;5065299;28;19924;-80
2021/11/05 10:22:29;;;;;;;;;;;;;;;6.53;91.17;96622.97;5079720;28;19986;-80
2021/11/05 10:25:13;;;;;;;;;;;;;;;6.73;91.33;96625.59;5078909;28;20380;-79
2021/11/05 10:27:39;;;;;;;;;;;;;;;6.91;90.98;96620.56;5062912;28;19924;-80
2021/11/05 10:30:06;;;;;;;;;;;;;;;7.01;91.25;96622.78;5079165;28;19948;-80
2021/11/05 10:32:39;;;;;;;;;;;;;;;7.29;89.36;96625.94;5078380;28;19981;-80
2021/11/05 10:35:12;;;;;;;;;;;;;;;7.48;90.56;96626.09;5079961;28;20464;-80
2021/11/05 10:37:37;;;;;;;;;;;;;;;7.44;88.35;96630.16;5079188;28;19924;-80
2021/11/05 10:40:07;;;;;;;;;;;;;;;7.34;89.60;96627.94;5079470;28;19936;-80
2021/11/05 10:42:34;;;;;;;;;;;;;;;7.21;89.41;96630.56;5080689;28;20407;-80
2021/11/05 10:45:13;;;;;;;;;;;;;;;7.37;90.27;96632.75;5062387;28;19924;-81
2021/11/05 10:47:58;;;;;;;;;;;;;;;7.28;92.51;96634.81;5081088;28;19924;-80
2021/11/05 10:50:27;;;;;;;;;;;;;;;7.17;93.62;96637.25;5082246;28;20262;-81
2021/11/05 10:53:00;;;;;;;;;;;;;;;7.28;93.12;96634.00;5085268;28;19924;-80
2021/11/05 10:57:55;;;;;;;;;;;;;;;7.31;93.06;96638.81;5114963;22;19912;-74
2021/11/05 11:00:22;;;;;;;;;;;;;;;7.08;92.38;96644.47;5081872;28;20031;-77
2021/11/05 11:02:47;;;;;;;;;;;;;;;7.15;94.28;96641.84;5078752;28;20010;-76
2021/11/05 11:05:30;;;;;;;;;;;;;;;7.10;95.04;96643.28;5082786;28;19924;-77
2021/11/05 11:07:55;;;;;;;;;;;;;;;7.44;94.18;96640.63;5058150;28;19924;-77
2021/11/05 11:10:27;;;;;;;;;;;;;;;6.99;93.70;96640.47;5058280;28;20087;-79
2021/11/05 11:12:52;;;;;;;;;;;;;;;7.16;94.60;96646.06;5057754;28;19952;-77
2021/11/05 11:15:31;;;;;;;;;;;;;;;7.19;93.47;96646.47;5062882;28;19932;-76
2021/11/05 11:17:59;;;;;;;;;;;;;;;7.25;93.27;96645.66;5060833;28;19936;-77
2021/11/05 11:20:28;;;;;;;;;;;;;;;7.35;91.85;96655.72;5056266;28;20416;-77
2021/11/05 11:22:55;;;;;;;;;;;;;;;7.29;91.71;96651.31;5057401;28;19967;-76
2021/11/05 11:25:20;;;;;;;;;;;;;;;7.15;91.18;96652.31;5058774;28;19964;-77
2021/11/05 11:27:45;;;;;;;;;;;;;;;7.20;91.80;96647.28;5057083;28;19924;-79
2021/11/05 11:30:11;;;;;;;;;;;;;;;7.42;90.84;96647.84;5058407;28;19925;-77
2021/11/05 11:32:36;;;;;;;;;;;;;;;7.32;90.37;96654.34;5057084;28;19925;-78
2021/11/05 11:35:02;;;;;;;;;;;;;;;7.29;90.93;96651.31;5056299;28;19928;-77
2021/11/05 11:37:31;;;;;;;;;;;;;;;7.25;90.65;96653.50;5054254;28;19925;-76
2021/11/05 11:39:58;;;;;;;;;;;;;;;7.32;90.24;96656.16;5057440;28;19931;-77
2021/11/05 11:42:23;;;;;;;;;;;;;;;7.26;89.81;96652.50;5073407;28;19940;-74
2021/11/05 11:44:51;;;;;;;;;;;;;;;7.19;91.02;96661.38;5059400;28;19929;-75
2021/11/05 11:47:17;;;;;;;;;;;;;;;7.21;91.70;96656.75;5069053;28;19932;-77
2021/11/05 11:49:43;;;;;;;;;;;;;;;7.17;91.01;96658.97;5074940;28;20011;-77
2021/11/05 11:52:24;;;;;;;;;;;;;;;7.27;91.90;96663.81;5074972;28;20026;-73
2021/11/05 11:54:51;;;;;;;;;;;;;;;7.19;90.03;96664.00;5070522;28;19912;-76
2021/11/05 11:57:18;;;;;;;;;;;;;;;7.41;91.71;96660.13;5067136;28;19925;-77
2021/11/05 11:59:45;;;;;;;;;;;;;;;7.47;90.03;96658.50;5059943;28;19956;-77
2021/11/05 12:02:28;;;;;;;;;;;;;;;7.66;88.52;96660.28;5060966;28;19932;-77
2021/11/05 12:04:54;;;;;;;;;;;;;;;7.79;87.08;96662.84;5060741;28;19925;-76
2021/11/05 12:07:19;;;;;;;;;;;;;;;7.87;86.24;96660.03;5061518;28;19931;-79
2021/11/05 12:09:47;;;;;;;;;;;;;;;7.94;85.06;96660.00;5063633;28;19996;-76
2021/11/05 12:12:30;;;;;;;;;;;;;;;7.93;85.27;96668.06;5063439;28;19936;-76
2021/11/05 12:15:12;;;;;;;;;;;;;;;7.85;85.77;96664.63;5063147;28;19925;-76
2021/11/05 12:17:56;;;;;;;;;;;;;;;8.07;84.65;96659.94;5063123;28;19924;-77
2021/11/05 12:20:22;;;;;;;;;;;;;;;8.15;83.01;96667.56;5061500;28;20300;-76
2021/11/05 12:23:03;;;;;;;;;;;;;;;8.15;83.68;96670.19;5065509;28;19982;-78
2021/11/05 12:25:42;;;;;;;;;;;;;;;8.08;86.02;96664.16;5064476;28;19924;-75
2021/11/05 12:28:16;;;;;;;;;;;;;;;7.92;87.76;96672.50;5059025;28;19944;-76
2021/11/05 12:30:42;;;;;;;;;;;;;;;7.64;88.51;96670.16;5058927;28;19963;-75
2021/11/05 12:33:24;;;;;;;;;;;;;;;7.70;88.49;96676.41;5064715;28;19925;-77
2021/11/05 12:35:52;;;;;;;;;;;;;;;7.48;89.38;96674.03;5041306;28;19928;-77
2021/11/05 12:38:18;;;;;;;;;;;;;;;7.45;91.10;96681.47;5060253;28;19932;-77
2021/11/05 12:40:47;;;;;;;;;;;;;;;7.31;90.19;96678.06;5060595;28;19924;-78
2021/11/05 12:43:46;;;;;;;;;;;;;;;7.35;90.11;96676.66;5060765;28;20331;-77
2021/11/05 12:46:30;;;;;;;;;;;;;;;7.63;89.60;96679.00;4999905;28;19930;-77
2021/11/05 12:48:58;;;;;;;;;;;;;;;7.73;89.76;96684.63;4993199;28;19926;-76
2021/11/05 12:51:25;;;;;;;;;;;;;;;7.84;89.74;96680.56;5033449;28;19998;-77
2021/11/05 12:53:55;;;;;;;;;;;;;;;7.95;90.36;96682.53;5061006;28;19925;-77
2021/11/05 12:56:21;;;;;;;;;;;;;;;7.98;89.58;96684.75;5058822;28;19932;-77
2021/11/05 12:58:46;;;;;;;;;;;;;;;7.87;87.17;96690.66;5058193;28;19947;-77